sensor_id;sensor_type;location;lat;lon;timestamp;P1;durP1;ratioP1;P2;durP2;ratioP2
44143;SDS011;43510;51.920;4.492;2022-12-26T00:01:49;49.45;;;18.23;;
44143;SDS011;43510;51.920;4.492;2022-12-26T00:04:16;42.25;;;16.77;;
44143;SDS011;43510;51.920;4.492;2022-12-26T00:06:42;41.50;;;17.17;;
44143;SDS011;43510;51.920;4.492;2022-12-26T00:09:07;45.63;;;16.52;;
44143;SDS011;43510;51.920;4.492;2022-12-26T00:11:33;41.15;;;16.83;;
44143;SDS011;43510;51.920;4.492;2022-12-26T00:14:00;40.90;;;17.05;;
44143;SDS011;43510;51.920;4.492;2022-12-26T00:16:45;43.50;;;17.75;;
44143;SDS011;43510;51.920;4.492;2022-12-26T00:19:11;42.85;;;16.83;;
44143;SDS011;43510;51.920;4.492;2022-12-26T00:21:39;39.35;;;16.60;;
44143;SDS011;43510;51.920;4.492;2022-12-26T00:24:04;40.35;;;16.65;;
44143;SDS011;43510;51.920;4.492;2022-12-26T00:26:31;41.70;;;16.77;;
44143;SDS011;43510;51.920;4.492;2022-12-26T00:28:58;43.88;;;17.65;;
44143;SDS011;43510;51.920;4.492;2022-12-26T00:31:25;40.35;;;16.75;;
44143;SDS011;43510;51.920;4.492;2022-12-26T00:33:52;45.00;;;17.85;;
44143;SDS011;43510;51.920;4.492;2022-12-26T00:36:23;48.80;;;17.25;;
44143;SDS011;43510;51.920;4.492;2022-12-26T00:38:50;45.10;;;19.33;;
44143;SDS011;43510;51.920;4.492;2022-12-26T00:41:17;46.55;;;18.52;;
44143;SDS011;43510;51.920;4.492;2022-12-26T00:43:43;47.58;;;19.73;;
44143;SDS011;43510;51.920;4.492;2022-12-26T00:46:09;43.75;;;18.25;;
44143;SDS011;43510;51.920;4.492;2022-12-26T00:48:35;46.72;;;19.15;;
44143;SDS011;43510;51.920;4.492;2022-12-26T00:51:01;48.10;;;21.17;;
44143;SDS011;43510;51.920;4.492;2022-12-26T00:53:27;48.28;;;19.33;;
44143;SDS011;43510;51.920;4.492;2022-12-26T00:55:53;48.53;;;19.67;;
44143;SDS011;43510;51.920;4.492;2022-12-26T00:58:19;44.75;;;19.10;;
44143;SDS011;43510;51.920;4.492;2022-12-26T01:00:48;45.33;;;18.95;;
44143;SDS011;43510;51.920;4.492;2022-12-26T01:03:14;44.88;;;19.63;;
44143;SDS011;43510;51.920;4.492;2022-12-26T01:05:41;47.63;;;19.33;;
44143;SDS011;43510;51.920;4.492;2022-12-26T01:08:08;44.67;;;19.17;;
44143;SDS011;43510;51.920;4.492;2022-12-26T01:10:37;43.67;;;18.23;;
44143;SDS011;43510;51.920;4.492;2022-12-26T01:13:04;42.17;;;17.90;;
44143;SDS011;43510;51.920;4.492;2022-12-26T01:15:30;36.53;;;16.63;;
44143;SDS011;43510;51.920;4.492;2022-12-26T01:17:57;36.58;;;15.82;;
44143;SDS011;43510;51.920;4.492;2022-12-26T01:20:23;39.40;;;16.42;;
44143;SDS011;43510;51.920;4.492;2022-12-26T01:22:49;36.65;;;15.32;;
44143;SDS011;43510;51.920;4.492;2022-12-26T01:25:14;38.97;;;15.10;;
44143;SDS011;43510;51.920;4.492;2022-12-26T01:27:42;34.42;;;15.52;;
44143;SDS011;43510;51.920;4.492;2022-12-26T01:30:20;28.63;;;13.35;;
44143;SDS011;43510;51.920;4.492;2022-12-26T01:32:45;33.55;;;14.63;;
44143;SDS011;43510;51.920;4.492;2022-12-26T01:35:11;31.50;;;13.68;;
44143;SDS011;43510;51.920;4.492;2022-12-26T01:37:36;31.75;;;12.48;;
44143;SDS011;43510;51.920;4.492;2022-12-26T01:40:02;32.17;;;13.30;;
44143;SDS011;43510;51.920;4.492;2022-12-26T01:42:34;31.23;;;12.88;;
44143;SDS011;43510;51.920;4.492;2022-12-26T01:48:20;26.98;;;12.95;;
44143;SDS011;43510;51.920;4.492;2022-12-26T01:50:54;28.92;;;12.63;;
44143;SDS011;43510;51.920;4.492;2022-12-26T01:53:42;30.83;;;12.45;;
44143;SDS011;43510;51.920;4.492;2022-12-26T01:56:12;30.42;;;13.57;;
44143;SDS011;43510;51.920;4.492;2022-12-26T01:58:42;28.67;;;12.82;;
44143;SDS011;43510;51.920;4.492;2022-12-26T02:01:12;25.27;;;12.73;;
44143;SDS011;43510;51.920;4.492;2022-12-26T02:03:38;24.50;;;12.20;;
44143;SDS011;43510;51.920;4.492;2022-12-26T02:06:26;22.48;;;11.60;;
44143;SDS011;43510;51.920;4.492;2022-12-26T02:08:52;28.27;;;12.50;;
44143;SDS011;43510;51.920;4.492;2022-12-26T02:11:20;24.88;;;11.40;;
44143;SDS011;43510;51.920;4.492;2022-12-26T02:13:49;24.30;;;11.30;;
44143;SDS011;43510;51.920;4.492;2022-12-26T02:16:16;24.55;;;12.02;;
44143;SDS011;43510;51.920;4.492;2022-12-26T02:18:43;25.42;;;11.48;;
44143;SDS011;43510;51.920;4.492;2022-12-26T02:29:58;22.67;;;9.73;;
44143;SDS011;43510;51.920;4.492;2022-12-26T02:41:15;22.42;;;10.40;;
44143;SDS011;43510;51.920;4.492;2022-12-26T02:44:09;21.35;;;10.40;;
44143;SDS011;43510;51.920;4.492;2022-12-26T02:53:03;24.05;;;10.98;;
44143;SDS011;43510;51.920;4.492;2022-12-26T02:55:51;22.45;;;10.60;;
44143;SDS011;43510;51.920;4.492;2022-12-26T02:58:45;21.98;;;11.10;;
44143;SDS011;43510;51.920;4.492;2022-12-26T03:01:37;25.30;;;12.60;;
44143;SDS011;43510;51.920;4.492;2022-12-26T03:04:26;26.58;;;12.60;;
44143;SDS011;43510;51.920;4.492;2022-12-26T03:07:15;26.75;;;11.93;;
44143;SDS011;43510;51.920;4.492;2022-12-26T03:10:08;24.55;;;11.52;;
44143;SDS011;43510;51.920;4.492;2022-12-26T03:13:09;31.48;;;11.88;;
44143;SDS011;43510;51.920;4.492;2022-12-26T03:16:01;25.20;;;12.73;;
44143;SDS011;43510;51.920;4.492;2022-12-26T03:18:50;23.25;;;12.02;;
44143;SDS011;43510;51.920;4.492;2022-12-26T03:21:21;25.55;;;12.43;;
44143;SDS011;43510;51.920;4.492;2022-12-26T03:23:50;25.20;;;12.40;;
44143;SDS011;43510;51.920;4.492;2022-12-26T03:26:20;24.63;;;11.73;;
44143;SDS011;43510;51.920;4.492;2022-12-26T03:29:10;24.52;;;12.00;;
44143;SDS011;43510;51.920;4.492;2022-12-26T03:32:06;23.10;;;10.40;;
44143;SDS011;43510;51.920;4.492;2022-12-26T03:34:38;25.90;;;11.70;;
44143;SDS011;43510;51.920;4.492;2022-12-26T03:39:48;28.38;;;10.40;;
44143;SDS011;43510;51.920;4.492;2022-12-26T03:42:43;23.70;;;10.27;;
44143;SDS011;43510;51.920;4.492;2022-12-26T03:55:18;24.15;;;11.13;;
44143;SDS011;43510;51.920;4.492;2022-12-26T03:58:08;26.60;;;12.00;;
44143;SDS011;43510;51.920;4.492;2022-12-26T04:00:58;28.45;;;13.00;;
44143;SDS011;43510;51.920;4.492;2022-12-26T04:03:45;28.23;;;11.48;;
44143;SDS011;43510;51.920;4.492;2022-12-26T04:06:44;27.75;;;12.32;;
44143;SDS011;43510;51.920;4.492;2022-12-26T04:09:44;27.40;;;12.02;;
44143;SDS011;43510;51.920;4.492;2022-12-26T04:12:33;28.02;;;12.45;;
44143;SDS011;43510;51.920;4.492;2022-12-26T04:15:23;21.73;;;10.30;;
44143;SDS011;43510;51.920;4.492;2022-12-26T04:18:16;23.55;;;11.38;;
44143;SDS011;43510;51.920;4.492;2022-12-26T04:24:02;21.63;;;9.38;;
44143;SDS011;43510;51.920;4.492;2022-12-26T04:26:53;21.25;;;8.88;;
44143;SDS011;43510;51.920;4.492;2022-12-26T04:29:40;21.13;;;9.73;;
44143;SDS011;43510;51.920;4.492;2022-12-26T04:32:44;18.58;;;8.27;;
44143;SDS011;43510;51.920;4.492;2022-12-26T04:35:41;19.85;;;8.60;;
44143;SDS011;43510;51.920;4.492;2022-12-26T04:38:33;18.52;;;7.55;;
44143;SDS011;43510;51.920;4.492;2022-12-26T04:41:22;16.88;;;7.15;;
44143;SDS011;43510;51.920;4.492;2022-12-26T04:44:09;17.02;;;6.20;;
44143;SDS011;43510;51.920;4.492;2022-12-26T04:46:39;15.55;;;6.65;;
44143;SDS011;43510;51.920;4.492;2022-12-26T04:49:08;13.45;;;5.95;;
44143;SDS011;43510;51.920;4.492;2022-12-26T04:51:55;13.23;;;5.80;;
44143;SDS011;43510;51.920;4.492;2022-12-26T04:54:22;13.82;;;5.70;;
44143;SDS011;43510;51.920;4.492;2022-12-26T04:56:47;12.82;;;4.97;;
44143;SDS011;43510;51.920;4.492;2022-12-26T04:59:13;14.88;;;5.82;;
44143;SDS011;43510;51.920;4.492;2022-12-26T05:01:39;12.60;;;5.05;;
44143;SDS011;43510;51.920;4.492;2022-12-26T05:04:23;12.63;;;5.05;;
44143;SDS011;43510;51.920;4.492;2022-12-26T05:07:17;12.40;;;5.07;;
44143;SDS011;43510;51.920;4.492;2022-12-26T05:10:04;13.95;;;4.65;;
44143;SDS011;43510;51.920;4.492;2022-12-26T05:12:32;11.57;;;5.30;;
44143;SDS011;43510;51.920;4.492;2022-12-26T05:14:58;10.73;;;4.78;;
44143;SDS011;43510;51.920;4.492;2022-12-26T05:17:24;12.35;;;5.93;;
44143;SDS011;43510;51.920;4.492;2022-12-26T05:20:09;10.30;;;5.00;;
44143;SDS011;43510;51.920;4.492;2022-12-26T05:22:55;9.32;;;3.85;;
44143;SDS011;43510;51.920;4.492;2022-12-26T05:25:41;11.02;;;4.63;;
44143;SDS011;43510;51.920;4.492;2022-12-26T05:28:28;10.48;;;4.03;;
44143;SDS011;43510;51.920;4.492;2022-12-26T05:31:05;11.70;;;4.30;;
44143;SDS011;43510;51.920;4.492;2022-12-26T05:33:39;12.65;;;4.20;;
44143;SDS011;43510;51.920;4.492;2022-12-26T05:36:24;8.95;;;3.72;;
44143;SDS011;43510;51.920;4.492;2022-12-26T05:38:54;8.85;;;3.63;;
44143;SDS011;43510;51.920;4.492;2022-12-26T05:41:27;9.65;;;4.22;;
44143;SDS011;43510;51.920;4.492;2022-12-26T05:43:53;8.77;;;3.95;;
44143;SDS011;43510;51.920;4.492;2022-12-26T05:46:18;10.57;;;5.30;;
44143;SDS011;43510;51.920;4.492;2022-12-26T05:48:44;8.55;;;3.90;;
44143;SDS011;43510;51.920;4.492;2022-12-26T05:51:09;10.90;;;4.25;;
44143;SDS011;43510;51.920;4.492;2022-12-26T05:53:35;12.15;;;3.97;;
44143;SDS011;43510;51.920;4.492;2022-12-26T05:56:01;12.43;;;3.63;;
44143;SDS011;43510;51.920;4.492;2022-12-26T05:58:28;10.20;;;4.22;;
44143;SDS011;43510;51.920;4.492;2022-12-26T06:01:02;8.88;;;4.22;;
44143;SDS011;43510;51.920;4.492;2022-12-26T06:03:29;17.10;;;5.00;;
44143;SDS011;43510;51.920;4.492;2022-12-26T06:06:01;9.90;;;4.13;;
44143;SDS011;43510;51.920;4.492;2022-12-26T06:08:27;10.27;;;4.50;;
44143;SDS011;43510;51.920;4.492;2022-12-26T06:10:52;8.55;;;4.22;;
44143;SDS011;43510;51.920;4.492;2022-12-26T06:13:18;10.77;;;4.30;;
44143;SDS011;43510;51.920;4.492;2022-12-26T06:15:43;14.93;;;5.18;;
44143;SDS011;43510;51.920;4.492;2022-12-26T06:18:09;12.23;;;5.18;;
44143;SDS011;43510;51.920;4.492;2022-12-26T06:20:37;12.50;;;4.90;;
44143;SDS011;43510;51.920;4.492;2022-12-26T06:23:03;15.50;;;4.97;;
44143;SDS011;43510;51.920;4.492;2022-12-26T06:25:28;14.93;;;4.63;;
44143;SDS011;43510;51.920;4.492;2022-12-26T06:27:54;11.45;;;5.03;;
44143;SDS011;43510;51.920;4.492;2022-12-26T06:30:23;19.55;;;5.90;;
44143;SDS011;43510;51.920;4.492;2022-12-26T06:32:48;10.60;;;5.00;;
44143;SDS011;43510;51.920;4.492;2022-12-26T06:35:14;16.05;;;5.60;;
44143;SDS011;43510;51.920;4.492;2022-12-26T06:37:39;14.60;;;4.90;;
44143;SDS011;43510;51.920;4.492;2022-12-26T06:40:05;14.05;;;4.68;;
44143;SDS011;43510;51.920;4.492;2022-12-26T06:42:31;13.13;;;4.80;;
44143;SDS011;43510;51.920;4.492;2022-12-26T06:44:59;8.43;;;4.50;;
44143;SDS011;43510;51.920;4.492;2022-12-26T06:47:25;13.73;;;4.07;;
44143;SDS011;43510;51.920;4.492;2022-12-26T06:49:52;8.85;;;4.47;;
44143;SDS011;43510;51.920;4.492;2022-12-26T06:52:18;11.77;;;3.75;;
44143;SDS011;43510;51.920;4.492;2022-12-26T06:54:43;10.05;;;3.60;;
44143;SDS011;43510;51.920;4.492;2022-12-26T06:57:09;17.02;;;4.22;;
44143;SDS011;43510;51.920;4.492;2022-12-26T06:59:34;9.30;;;3.72;;
44143;SDS011;43510;51.920;4.492;2022-12-26T07:02:00;12.77;;;3.60;;
44143;SDS011;43510;51.920;4.492;2022-12-26T07:04:25;8.55;;;3.30;;
44143;SDS011;43510;51.920;4.492;2022-12-26T07:06:51;10.23;;;4.10;;
44143;SDS011;43510;51.920;4.492;2022-12-26T07:09:17;9.18;;;3.45;;
44143;SDS011;43510;51.920;4.492;2022-12-26T07:11:46;7.72;;;3.75;;
44143;SDS011;43510;51.920;4.492;2022-12-26T07:14:13;10.40;;;3.90;;
44143;SDS011;43510;51.920;4.492;2022-12-26T07:16:41;10.65;;;3.50;;
44143;SDS011;43510;51.920;4.492;2022-12-26T07:19:09;9.00;;;3.95;;
44143;SDS011;43510;51.920;4.492;2022-12-26T07:21:36;11.15;;;3.65;;
44143;SDS011;43510;51.920;4.492;2022-12-26T07:24:02;10.20;;;3.35;;
44143;SDS011;43510;51.920;4.492;2022-12-26T07:26:28;12.13;;;3.55;;
44143;SDS011;43510;51.920;4.492;2022-12-26T07:28:57;11.50;;;4.28;;
44143;SDS011;43510;51.920;4.492;2022-12-26T07:31:23;13.05;;;3.38;;
44143;SDS011;43510;51.920;4.492;2022-12-26T07:33:52;11.10;;;3.42;;
44143;SDS011;43510;51.920;4.492;2022-12-26T07:36:19;19.27;;;3.60;;
44143;SDS011;43510;51.920;4.492;2022-12-26T07:38:45;9.85;;;3.38;;
44143;SDS011;43510;51.920;4.492;2022-12-26T07:41:11;14.30;;;3.85;;
44143;SDS011;43510;51.920;4.492;2022-12-26T07:43:55;7.97;;;3.55;;
44143;SDS011;43510;51.920;4.492;2022-12-26T07:46:21;11.68;;;3.55;;
44143;SDS011;43510;51.920;4.492;2022-12-26T07:48:47;14.57;;;3.80;;
44143;SDS011;43510;51.920;4.492;2022-12-26T07:51:13;9.13;;;2.88;;
44143;SDS011;43510;51.920;4.492;2022-12-26T07:53:38;11.48;;;3.67;;
44143;SDS011;43510;51.920;4.492;2022-12-26T07:56:04;6.03;;;3.28;;
44143;SDS011;43510;51.920;4.492;2022-12-26T07:58:30;12.85;;;3.92;;
44143;SDS011;43510;51.920;4.492;2022-12-26T08:01:00;9.13;;;3.80;;
44143;SDS011;43510;51.920;4.492;2022-12-26T08:03:26;9.02;;;3.60;;
44143;SDS011;43510;51.920;4.492;2022-12-26T08:05:52;10.18;;;3.70;;
44143;SDS011;43510;51.920;4.492;2022-12-26T08:08:18;9.90;;;3.55;;
44143;SDS011;43510;51.920;4.492;2022-12-26T08:10:43;13.30;;;5.53;;
44143;SDS011;43510;51.920;4.492;2022-12-26T08:13:08;11.52;;;4.03;;
44143;SDS011;43510;51.920;4.492;2022-12-26T08:15:36;9.15;;;3.33;;
44143;SDS011;43510;51.920;4.492;2022-12-26T08:18:02;13.50;;;4.28;;
44143;SDS011;43510;51.920;4.492;2022-12-26T08:20:28;13.45;;;3.65;;
44143;SDS011;43510;51.920;4.492;2022-12-26T08:22:53;20.65;;;4.28;;
44143;SDS011;43510;51.920;4.492;2022-12-26T08:25:18;13.45;;;3.70;;
44143;SDS011;43510;51.920;4.492;2022-12-26T08:27:44;11.13;;;3.50;;
44143;SDS011;43510;51.920;4.492;2022-12-26T08:30:22;8.43;;;3.35;;
44143;SDS011;43510;51.920;4.492;2022-12-26T08:32:47;9.60;;;3.58;;
44143;SDS011;43510;51.920;4.492;2022-12-26T08:35:15;8.85;;;3.05;;
44143;SDS011;43510;51.920;4.492;2022-12-26T08:37:40;6.55;;;2.50;;
44143;SDS011;43510;51.920;4.492;2022-12-26T08:40:06;12.02;;;2.60;;
44143;SDS011;43510;51.920;4.492;2022-12-26T08:42:32;17.40;;;2.67;;
44143;SDS011;43510;51.920;4.492;2022-12-26T08:45:00;7.82;;;2.58;;
44143;SDS011;43510;51.920;4.492;2022-12-26T08:47:26;6.38;;;2.42;;
44143;SDS011;43510;51.920;4.492;2022-12-26T08:49:52;9.52;;;2.38;;
44143;SDS011;43510;51.920;4.492;2022-12-26T08:52:18;16.48;;;3.65;;
44143;SDS011;43510;51.920;4.492;2022-12-26T08:54:43;22.88;;;2.42;;
44143;SDS011;43510;51.920;4.492;2022-12-26T08:57:12;8.93;;;2.00;;
44143;SDS011;43510;51.920;4.492;2022-12-26T08:59:37;11.07;;;2.08;;
44143;SDS011;43510;51.920;4.492;2022-12-26T09:02:03;13.27;;;2.30;;
44143;SDS011;43510;51.920;4.492;2022-12-26T09:04:30;15.55;;;2.42;;
44143;SDS011;43510;51.920;4.492;2022-12-26T09:06:55;23.13;;;2.55;;
44143;SDS011;43510;51.920;4.492;2022-12-26T09:09:21;11.38;;;1.88;;
44143;SDS011;43510;51.920;4.492;2022-12-26T09:11:46;15.32;;;2.70;;
44143;SDS011;43510;51.920;4.492;2022-12-26T09:14:13;13.23;;;1.90;;
44143;SDS011;43510;51.920;4.492;2022-12-26T09:16:41;23.15;;;2.50;;
44143;SDS011;43510;51.920;4.492;2022-12-26T09:19:10;19.00;;;2.55;;
44143;SDS011;43510;51.920;4.492;2022-12-26T09:21:37;17.58;;;2.45;;
44143;SDS011;43510;51.920;4.492;2022-12-26T09:24:05;24.48;;;2.95;;
44143;SDS011;43510;51.920;4.492;2022-12-26T09:26:32;14.75;;;3.25;;
44143;SDS011;43510;51.920;4.492;2022-12-26T09:28:58;12.43;;;2.08;;
44143;SDS011;43510;51.920;4.492;2022-12-26T09:31:24;7.65;;;1.80;;
44143;SDS011;43510;51.920;4.492;2022-12-26T09:33:51;17.88;;;2.10;;
44143;SDS011;43510;51.920;4.492;2022-12-26T09:36:25;10.68;;;2.20;;
44143;SDS011;43510;51.920;4.492;2022-12-26T09:38:53;12.63;;;2.28;;
44143;SDS011;43510;51.920;4.492;2022-12-26T09:41:30;14.68;;;2.58;;
44143;SDS011;43510;51.920;4.492;2022-12-26T09:52:19;12.48;;;1.52;;
44143;SDS011;43510;51.920;4.492;2022-12-26T09:54:52;10.85;;;1.83;;
44143;SDS011;43510;51.920;4.492;2022-12-26T09:57:34;7.90;;;1.42;;
44143;SDS011;43510;51.920;4.492;2022-12-26T10:00:22;6.88;;;1.35;;
44143;SDS011;43510;51.920;4.492;2022-12-26T10:02:53;9.40;;;1.40;;
44143;SDS011;43510;51.920;4.492;2022-12-26T10:05:24;11.88;;;1.52;;
44143;SDS011;43510;51.920;4.492;2022-12-26T10:11:01;9.93;;;1.20;;
44143;SDS011;43510;51.920;4.492;2022-12-26T10:16:10;11.57;;;1.95;;
44143;SDS011;43510;51.920;4.492;2022-12-26T10:21:34;12.75;;;1.65;;
44143;SDS011;43510;51.920;4.492;2022-12-26T10:24:17;9.88;;;2.35;;
44143;SDS011;43510;51.920;4.492;2022-12-26T10:26:47;11.10;;;2.17;;
44143;SDS011;43510;51.920;4.492;2022-12-26T10:29:17;13.02;;;1.83;;
44143;SDS011;43510;51.920;4.492;2022-12-26T10:31:53;6.53;;;1.23;;
44143;SDS011;43510;51.920;4.492;2022-12-26T10:37:16;5.97;;;1.50;;
44143;SDS011;43510;51.920;4.492;2022-12-26T10:39:56;10.60;;;1.50;;
44143;SDS011;43510;51.920;4.492;2022-12-26T10:42:36;7.72;;;1.52;;
44143;SDS011;43510;51.920;4.492;2022-12-26T10:47:45;9.55;;;1.25;;
44143;SDS011;43510;51.920;4.492;2022-12-26T10:50:15;10.60;;;1.52;;
44143;SDS011;43510;51.920;4.492;2022-12-26T10:52:42;16.85;;;2.05;;
44143;SDS011;43510;51.920;4.492;2022-12-26T10:55:14;10.23;;;1.40;;
44143;SDS011;43510;51.920;4.492;2022-12-26T10:57:43;7.25;;;1.20;;
44143;SDS011;43510;51.920;4.492;2022-12-26T11:03:01;7.22;;;1.40;;
44143;SDS011;43510;51.920;4.492;2022-12-26T11:05:29;7.27;;;1.30;;
44143;SDS011;43510;51.920;4.492;2022-12-26T11:10:42;8.77;;;2.75;;
44143;SDS011;43510;51.920;4.492;2022-12-26T11:13:19;9.73;;;3.25;;
44143;SDS011;43510;51.920;4.492;2022-12-26T11:15:47;14.85;;;2.63;;
44143;SDS011;43510;51.920;4.492;2022-12-26T11:20:46;7.55;;;2.00;;
44143;SDS011;43510;51.920;4.492;2022-12-26T11:23:23;8.18;;;1.30;;
44143;SDS011;43510;51.920;4.492;2022-12-26T11:25:56;7.63;;;1.40;;
44143;SDS011;43510;51.920;4.492;2022-12-26T11:28:24;11.70;;;1.92;;
44143;SDS011;43510;51.920;4.492;2022-12-26T11:31:03;8.13;;;1.25;;
44143;SDS011;43510;51.920;4.492;2022-12-26T11:33:43;10.50;;;1.35;;
44143;SDS011;43510;51.920;4.492;2022-12-26T11:36:16;5.95;;;1.25;;
44143;SDS011;43510;51.920;4.492;2022-12-26T11:38:52;5.60;;;1.30;;
44143;SDS011;43510;51.920;4.492;2022-12-26T11:41:33;2.15;;;0.60;;
44143;SDS011;43510;51.920;4.492;2022-12-26T11:44:15;3.92;;;1.05;;
44143;SDS011;43510;51.920;4.492;2022-12-26T11:49:31;3.75;;;0.95;;
44143;SDS011;43510;51.920;4.492;2022-12-26T11:51:58;4.10;;;0.88;;
44143;SDS011;43510;51.920;4.492;2022-12-26T11:57:00;5.45;;;1.10;;
44143;SDS011;43510;51.920;4.492;2022-12-26T11:59:37;2.97;;;0.80;;
44143;SDS011;43510;51.920;4.492;2022-12-26T12:05:03;2.45;;;0.80;;
44143;SDS011;43510;51.920;4.492;2022-12-26T12:18:48;7.53;;;1.33;;
44143;SDS011;43510;51.920;4.492;2022-12-26T12:30:33;6.20;;;1.30;;
44143;SDS011;43510;51.920;4.492;2022-12-26T12:36:11;5.72;;;1.15;;
44143;SDS011;43510;51.920;4.492;2022-12-26T12:46:55;5.70;;;1.00;;
44143;SDS011;43510;51.920;4.492;2022-12-26T13:00:48;7.70;;;2.63;;
44143;SDS011;43510;51.920;4.492;2022-12-26T13:06:13;6.15;;;1.40;;
44143;SDS011;43510;51.920;4.492;2022-12-26T13:11:31;8.50;;;1.25;;
44143;SDS011;43510;51.920;4.492;2022-12-26T13:14:02;4.95;;;1.42;;
44143;SDS011;43510;51.920;4.492;2022-12-26T13:16:36;6.55;;;1.42;;
44143;SDS011;43510;51.920;4.492;2022-12-26T13:19:12;8.00;;;0.73;;
44143;SDS011;43510;51.920;4.492;2022-12-26T13:21:43;3.83;;;0.95;;
44143;SDS011;43510;51.920;4.492;2022-12-26T13:24:15;3.85;;;1.20;;
44143;SDS011;43510;51.920;4.492;2022-12-26T13:29:31;5.40;;;1.02;;
44143;SDS011;43510;51.920;4.492;2022-12-26T13:32:00;4.22;;;1.08;;
44143;SDS011;43510;51.920;4.492;2022-12-26T13:34:28;6.38;;;1.42;;
44143;SDS011;43510;51.920;4.492;2022-12-26T13:36:58;3.35;;;0.77;;
44143;SDS011;43510;51.920;4.492;2022-12-26T13:42:04;10.68;;;1.35;;
44143;SDS011;43510;51.920;4.492;2022-12-26T13:53:27;6.22;;;1.33;;
44143;SDS011;43510;51.920;4.492;2022-12-26T13:55:59;4.00;;;0.80;;
44143;SDS011;43510;51.920;4.492;2022-12-26T14:01:41;5.28;;;0.73;;
44143;SDS011;43510;51.920;4.492;2022-12-26T14:04:26;7.15;;;1.00;;
44143;SDS011;43510;51.920;4.492;2022-12-26T14:07:49;6.30;;;0.98;;
44143;SDS011;43510;51.920;4.492;2022-12-26T14:10:57;3.75;;;0.70;;
44143;SDS011;43510;51.920;4.492;2022-12-26T14:16:26;3.25;;;0.82;;
44143;SDS011;43510;51.920;4.492;2022-12-26T14:27:25;2.78;;;1.00;;
44143;SDS011;43510;51.920;4.492;2022-12-26T14:30:56;5.95;;;1.20;;
44143;SDS011;43510;51.920;4.492;2022-12-26T14:33:28;4.60;;;1.15;;
44143;SDS011;43510;51.920;4.492;2022-12-26T14:39:15;10.27;;;1.27;;
44143;SDS011;43510;51.920;4.492;2022-12-26T14:44:51;14.63;;;2.45;;
44143;SDS011;43510;51.920;4.492;2022-12-26T14:47:36;14.13;;;1.92;;
44143;SDS011;43510;51.920;4.492;2022-12-26T14:53:16;6.82;;;1.08;;
44143;SDS011;43510;51.920;4.492;2022-12-26T15:00:56;10.88;;;1.65;;
44143;SDS011;43510;51.920;4.492;2022-12-26T15:08:49;11.52;;;1.60;;
44143;SDS011;43510;51.920;4.492;2022-12-26T15:23:14;8.50;;;1.58;;
44143;SDS011;43510;51.920;4.492;2022-12-26T15:28:48;8.50;;;1.48;;
44143;SDS011;43510;51.920;4.492;2022-12-26T15:31:35;10.25;;;1.75;;
44143;SDS011;43510;51.920;4.492;2022-12-26T15:36:46;8.90;;;1.38;;
44143;SDS011;43510;51.920;4.492;2022-12-26T15:58:51;9.05;;;1.42;;
44143;SDS011;43510;51.920;4.492;2022-12-26T16:01:32;13.07;;;2.05;;
44143;SDS011;43510;51.920;4.492;2022-12-26T16:04:03;6.78;;;1.30;;
44143;SDS011;43510;51.920;4.492;2022-12-26T16:06:42;4.10;;;1.40;;
44143;SDS011;43510;51.920;4.492;2022-12-26T16:09:42;11.15;;;2.13;;
44143;SDS011;43510;51.920;4.492;2022-12-26T16:12:18;12.10;;;1.92;;
44143;SDS011;43510;51.920;4.492;2022-12-26T16:14:49;4.82;;;0.90;;
44143;SDS011;43510;51.920;4.492;2022-12-26T16:17:23;15.93;;;1.65;;
44143;SDS011;43510;51.920;4.492;2022-12-26T16:19:49;10.07;;;2.08;;
44143;SDS011;43510;51.920;4.492;2022-12-26T16:22:33;13.05;;;2.28;;
44143;SDS011;43510;51.920;4.492;2022-12-26T16:25:22;11.05;;;1.95;;
44143;SDS011;43510;51.920;4.492;2022-12-26T16:27:52;17.33;;;1.80;;
44143;SDS011;43510;51.920;4.492;2022-12-26T16:30:21;11.90;;;1.83;;
44143;SDS011;43510;51.920;4.492;2022-12-26T16:32:49;8.35;;;1.88;;
44143;SDS011;43510;51.920;4.492;2022-12-26T16:35:24;6.93;;;2.20;;
44143;SDS011;43510;51.920;4.492;2022-12-26T16:37:50;10.00;;;1.55;;
44143;SDS011;43510;51.920;4.492;2022-12-26T16:40:20;11.02;;;1.88;;
44143;SDS011;43510;51.920;4.492;2022-12-26T16:42:58;7.55;;;1.60;;
44143;SDS011;43510;51.920;4.492;2022-12-26T16:45:24;9.60;;;2.47;;
44143;SDS011;43510;51.920;4.492;2022-12-26T16:47:51;12.23;;;1.88;;
44143;SDS011;43510;51.920;4.492;2022-12-26T16:50:20;5.47;;;1.60;;
44143;SDS011;43510;51.920;4.492;2022-12-26T16:52:48;6.43;;;1.95;;
44143;SDS011;43510;51.920;4.492;2022-12-26T16:57:57;10.68;;;1.90;;
44143;SDS011;43510;51.920;4.492;2022-12-26T17:00:26;8.95;;;1.85;;
44143;SDS011;43510;51.920;4.492;2022-12-26T17:02:53;7.18;;;1.95;;
44143;SDS011;43510;51.920;4.492;2022-12-26T17:05:31;10.02;;;2.05;;
44143;SDS011;43510;51.920;4.492;2022-12-26T17:08:00;13.57;;;1.98;;
44143;SDS011;43510;51.920;4.492;2022-12-26T17:10:30;11.32;;;2.78;;
44143;SDS011;43510;51.920;4.492;2022-12-26T17:13:02;6.25;;;1.58;;
44143;SDS011;43510;51.920;4.492;2022-12-26T17:15:32;7.07;;;1.27;;
44143;SDS011;43510;51.920;4.492;2022-12-26T17:20:48;5.63;;;1.33;;
44143;SDS011;43510;51.920;4.492;2022-12-26T17:23:34;6.82;;;2.20;;
44143;SDS011;43510;51.920;4.492;2022-12-26T17:26:17;9.65;;;1.60;;
44143;SDS011;43510;51.920;4.492;2022-12-26T17:28:48;7.53;;;1.60;;
44143;SDS011;43510;51.920;4.492;2022-12-26T17:31:26;12.48;;;2.45;;
44143;SDS011;43510;51.920;4.492;2022-12-26T17:33:58;14.40;;;1.92;;
44143;SDS011;43510;51.920;4.492;2022-12-26T17:36:30;8.77;;;1.33;;
44143;SDS011;43510;51.920;4.492;2022-12-26T17:41:59;5.07;;;1.42;;
44143;SDS011;43510;51.920;4.492;2022-12-26T17:49:43;7.10;;;1.88;;
44143;SDS011;43510;51.920;4.492;2022-12-26T17:52:10;7.43;;;1.77;;
44143;SDS011;43510;51.920;4.492;2022-12-26T17:54:37;5.28;;;1.92;;
44143;SDS011;43510;51.920;4.492;2022-12-26T17:57:03;10.35;;;1.73;;
44143;SDS011;43510;51.920;4.492;2022-12-26T17:59:29;7.40;;;1.92;;
44143;SDS011;43510;51.920;4.492;2022-12-26T18:01:55;9.98;;;1.60;;
44143;SDS011;43510;51.920;4.492;2022-12-26T18:04:20;12.82;;;1.65;;
44143;SDS011;43510;51.920;4.492;2022-12-26T18:06:46;8.88;;;1.92;;
44143;SDS011;43510;51.920;4.492;2022-12-26T18:09:19;15.70;;;2.63;;
44143;SDS011;43510;51.920;4.492;2022-12-26T18:11:54;6.63;;;1.67;;
44143;SDS011;43510;51.920;4.492;2022-12-26T18:14:19;13.35;;;2.10;;
44143;SDS011;43510;51.920;4.492;2022-12-26T18:16:47;11.48;;;1.50;;
44143;SDS011;43510;51.920;4.492;2022-12-26T18:19:15;4.75;;;1.25;;
44143;SDS011;43510;51.920;4.492;2022-12-26T18:21:43;5.88;;;1.17;;
44143;SDS011;43510;51.920;4.492;2022-12-26T18:24:09;12.02;;;2.00;;
44143;SDS011;43510;51.920;4.492;2022-12-26T18:26:34;7.38;;;1.73;;
44143;SDS011;43510;51.920;4.492;2022-12-26T18:29:00;7.53;;;1.70;;
44143;SDS011;43510;51.920;4.492;2022-12-26T18:31:26;8.52;;;2.00;;
44143;SDS011;43510;51.920;4.492;2022-12-26T18:33:56;8.63;;;2.22;;
44143;SDS011;43510;51.920;4.492;2022-12-26T18:36:31;6.47;;;1.75;;
44143;SDS011;43510;51.920;4.492;2022-12-26T18:38:59;4.43;;;1.20;;
44143;SDS011;43510;51.920;4.492;2022-12-26T18:41:26;7.15;;;2.55;;
44143;SDS011;43510;51.920;4.492;2022-12-26T18:43:52;8.45;;;1.77;;
44143;SDS011;43510;51.920;4.492;2022-12-26T18:46:18;6.97;;;1.98;;
44143;SDS011;43510;51.920;4.492;2022-12-26T18:48:50;8.02;;;3.95;;
44143;SDS011;43510;51.920;4.492;2022-12-26T18:53:43;6.45;;;2.17;;
44143;SDS011;43510;51.920;4.492;2022-12-26T18:56:11;8.85;;;1.83;;
44143;SDS011;43510;51.920;4.492;2022-12-26T18:58:38;6.80;;;1.35;;